Aviation Digital Data Service (ADDS)

Output produced by TAFs form (1549 UTC 21 December 2014)
found at http://aviationweather.gov/adds/tafs/
 
KLVS 211134Z 2112/2212 VRB05KT P6SM SCT250 
     FM211700 28012G20KT P6SM BKN200 
     FM220400 21010KT P6SM BKN200